createdAt,value
2019-05-13T00:01:43.674Z,9.30
2019-05-13T00:04:14.070Z,9.20
2019-05-13T00:06:53.985Z,9.10
2019-05-13T00:09:14.780Z,9.10
2019-05-13T00:11:44.171Z,9.00
2019-05-13T00:14:13.592Z,9.00
2019-05-13T00:16:44.844Z,9.00
2019-05-13T00:19:14.334Z,8.90
2019-05-13T00:21:44.480Z,8.90
2019-05-13T00:24:14.519Z,8.80
2019-05-13T00:26:44.609Z,8.80
2019-05-13T00:29:14.557Z,8.80
2019-05-13T00:31:44.019Z,8.70
2019-05-13T00:34:14.343Z,8.70
2019-05-13T00:36:44.679Z,8.70
2019-05-13T00:39:15.333Z,8.60
2019-05-13T00:41:46.124Z,8.60
2019-05-13T00:44:18.048Z,8.50
2019-05-13T00:46:47.476Z,8.50
2019-05-13T00:49:16.849Z,8.40
2019-05-13T00:51:46.210Z,8.40
2019-05-13T00:54:15.597Z,8.30
2019-05-13T00:56:44.986Z,8.30
2019-05-13T00:59:14.440Z,8.20
2019-05-13T01:01:44.226Z,8.20
2019-05-13T01:04:14.471Z,8.20
2019-05-13T01:06:43.944Z,8.10
2019-05-13T01:09:14.500Z,8.10
2019-05-13T01:11:44.027Z,8.00
2019-05-13T01:14:14.306Z,8.00
2019-05-13T01:16:44.279Z,8.00
2019-05-13T01:19:14.352Z,7.90
2019-05-13T01:21:43.940Z,7.90
2019-05-13T01:24:14.376Z,7.80
2019-05-13T01:26:44.021Z,7.80
2019-05-13T01:29:13.686Z,7.70
2019-05-13T01:31:43.588Z,7.70
2019-05-13T01:34:14.285Z,7.70
2019-05-13T01:36:44.649Z,7.60
2019-05-13T01:39:14.297Z,7.60
2019-05-13T01:41:43.954Z,7.60
2019-05-13T01:44:14.018Z,7.50
2019-05-13T01:46:43.857Z,7.50
2019-05-13T01:49:13.875Z,7.50
2019-05-13T01:51:44.012Z,7.40
2019-05-13T02:14:28.041Z,4.30
2019-05-13T02:16:57.420Z,4.60
2019-05-13T02:19:26.775Z,4.90
2019-05-13T02:21:56.325Z,5.10
2019-05-13T02:24:25.897Z,5.30
2019-05-13T02:26:55.218Z,5.50
2019-05-13T02:29:24.649Z,5.60
2019-05-13T02:31:56.206Z,5.80
2019-05-13T02:34:25.096Z,5.90
2019-05-13T02:36:54.534Z,5.90
2019-05-13T02:39:23.895Z,6.00
2019-05-13T02:41:53.255Z,6.00
2019-05-13T02:44:22.828Z,6.10
2019-05-13T02:46:52.582Z,6.10
2019-05-13T02:49:23.185Z,6.10
2019-05-13T02:51:54.663Z,6.10
2019-05-13T02:54:24.029Z,6.10
2019-05-13T02:56:53.378Z,6.10
2019-05-13T02:59:23.008Z,6.10
2019-05-13T03:01:53.435Z,6.10
2019-05-13T03:04:23.600Z,6.10
2019-05-13T03:06:53.164Z,6.10
2019-05-13T03:09:23.142Z,6.10
2019-05-13T03:11:53.627Z,6.10
2019-05-13T03:14:24.020Z,6.10
2019-05-13T03:16:55.293Z,6.10
2019-05-13T03:19:24.660Z,6.10
2019-05-13T03:21:54.400Z,6.10
2019-05-13T03:24:23.806Z,6.00
2019-05-13T03:26:53.843Z,6.00
2019-05-13T03:29:23.226Z,6.00
2019-05-13T03:31:55.774Z,6.00
2019-05-13T03:34:26.705Z,6.00
2019-05-13T03:36:57.973Z,6.00
2019-05-13T03:39:32.997Z,5.90
2019-05-13T03:42:03.921Z,5.90
2019-05-13T03:44:33.354Z,5.90
2019-05-13T03:47:04.511Z,5.90
2019-05-13T03:49:35.988Z,5.80
2019-05-13T03:52:05.451Z,5.80
2019-05-13T03:54:35.738Z,5.80
2019-05-13T03:57:05.816Z,5.80
2019-05-13T03:59:35.617Z,5.80
2019-05-13T04:02:05.115Z,5.80
2019-05-13T04:04:34.563Z,5.80
2019-05-13T04:07:03.922Z,5.70
2019-05-13T04:09:36.394Z,5.70
2019-05-13T04:12:04.678Z,5.70
2019-05-13T04:14:34.154Z,5.70
2019-05-13T04:17:03.785Z,5.70
2019-05-13T04:19:34.258Z,5.70
2019-05-13T04:22:03.865Z,5.60
2019-05-13T04:24:33.922Z,5.60
2019-05-13T04:27:03.651Z,5.60
2019-05-13T04:29:33.598Z,5.60
2019-05-13T04:32:03.406Z,5.60
2019-05-13T04:34:34.011Z,5.60
2019-05-13T04:37:03.808Z,5.60
2019-05-13T04:39:46.018Z,5.60
2019-05-13T04:42:04.957Z,5.60
2019-05-13T04:44:34.342Z,5.60
2019-05-13T04:47:04.223Z,5.60
2019-05-13T04:49:33.897Z,5.70
2019-05-13T04:52:03.968Z,5.70
2019-05-13T04:54:33.986Z,5.80
2019-05-13T04:57:03.730Z,5.90
2019-05-13T04:59:34.792Z,6.00
2019-05-13T05:02:36.757Z,6.20
2019-05-13T05:05:03.578Z,6.30
2019-05-13T05:08:05.939Z,6.40
2019-05-13T05:10:57.404Z,6.60
2019-05-13T05:13:57.028Z,6.70
2019-05-13T05:16:56.243Z,6.80
2019-05-13T05:19:52.543Z,6.90
2019-05-13T05:22:32.381Z,7.00
2019-05-13T05:25:22.848Z,7.20
2019-05-13T05:28:05.404Z,7.30
2019-05-13T05:31:06.558Z,7.50
2019-05-13T05:33:51.525Z,7.50
2019-05-13T05:36:47.921Z,7.70
2019-05-13T05:39:26.278Z,7.80
2019-05-13T05:41:58.374Z,7.90
2019-05-13T05:44:32.449Z,8.00
2019-05-13T05:47:04.863Z,8.10
2019-05-13T05:49:35.852Z,8.30
2019-05-13T05:52:07.499Z,8.40
2019-05-13T05:54:42.260Z,8.50
2019-05-13T05:57:12.130Z,8.60
2019-05-13T05:59:42.857Z,8.80
2019-05-13T06:02:12.543Z,8.90
2019-05-13T06:04:43.342Z,9.10
2019-05-13T06:07:15.967Z,9.20
2019-05-13T06:09:45.326Z,9.30
2019-05-13T06:12:15.422Z,9.40
2019-05-13T06:14:45.521Z,9.50
2019-05-13T06:17:15.043Z,9.70
2019-05-13T06:19:44.791Z,9.80
2019-05-13T06:22:14.334Z,9.90
2019-05-13T06:24:43.768Z,10.00
2019-05-13T06:27:13.215Z,10.10
2019-05-13T06:29:42.621Z,10.20
2019-05-13T06:32:21.441Z,10.40
2019-05-13T06:34:43.587Z,10.50
2019-05-13T06:37:13.110Z,10.60
2019-05-13T06:39:42.917Z,10.70
2019-05-13T06:42:12.318Z,10.90
2019-05-13T06:44:42.206Z,10.90
2019-05-13T06:47:11.736Z,11.10
2019-05-13T06:49:42.867Z,11.20
2019-05-13T06:52:12.372Z,11.30
2019-05-13T06:54:42.001Z,11.40
2019-05-13T06:57:13.607Z,11.50
2019-05-13T06:59:43.129Z,11.60
2019-05-13T07:02:12.663Z,11.70
2019-05-13T07:04:42.058Z,11.80
2019-05-13T07:07:16.739Z,11.90
2019-05-13T07:09:43.752Z,11.90
2019-05-13T07:12:13.544Z,12.00
2019-05-13T07:14:42.914Z,12.20
2019-05-13T07:17:12.565Z,12.30
2019-05-13T07:19:42.032Z,12.40
2019-05-13T07:22:12.139Z,12.50
2019-05-13T07:24:41.663Z,12.70
2019-05-13T07:27:12.277Z,12.80
2019-05-13T07:29:42.517Z,12.90
2019-05-13T07:32:12.188Z,13.10
2019-05-13T07:34:43.987Z,13.20
2019-05-13T07:37:13.186Z,13.30
2019-05-13T07:39:42.779Z,13.40
2019-05-13T07:42:12.515Z,13.50
2019-05-13T07:44:42.103Z,13.60
2019-05-13T07:47:11.845Z,13.70
2019-05-13T07:49:42.244Z,13.80
2019-05-13T07:52:12.017Z,13.90
2019-05-13T07:54:42.133Z,14.00
2019-05-13T07:57:12.284Z,14.10
2019-05-13T07:59:42.230Z,14.20
2019-05-13T08:02:12.338Z,14.20
2019-05-13T08:04:42.242Z,14.30
2019-05-13T08:07:12.215Z,14.40
2019-05-13T08:09:42.040Z,14.50
2019-05-13T08:12:14.312Z,14.70
2019-05-13T08:14:43.667Z,14.80
2019-05-13T08:17:13.493Z,14.80
2019-05-13T08:19:43.288Z,14.90
2019-05-13T08:22:12.648Z,15.00
2019-05-13T08:24:42.658Z,15.10
2019-05-13T08:27:12.311Z,15.20
2019-05-13T08:29:42.255Z,15.30
2019-05-13T08:32:11.696Z,15.30
2019-05-13T08:34:41.844Z,15.40
2019-05-13T08:37:11.636Z,15.50
2019-05-13T08:39:41.652Z,15.60
2019-05-13T08:42:15.925Z,15.60
2019-05-13T08:44:42.525Z,15.70
2019-05-13T08:47:12.459Z,15.80
2019-05-13T08:49:41.947Z,15.90
2019-05-13T08:52:12.263Z,15.90
2019-05-13T08:54:42.080Z,16.10
2019-05-13T08:57:12.022Z,16.10
2019-05-13T08:59:42.247Z,16.20
2019-05-13T09:02:12.241Z,16.30
2019-05-13T09:04:42.348Z,16.30
2019-05-13T09:07:12.286Z,16.40
2019-05-13T09:09:42.069Z,16.40
2019-05-13T09:12:13.197Z,16.50
2019-05-13T09:14:42.674Z,16.50
2019-05-13T09:17:12.223Z,16.60
2019-05-13T09:19:41.681Z,16.60
2019-05-13T09:22:12.352Z,16.70
2019-05-13T09:24:42.688Z,16.70
2019-05-13T09:27:12.602Z,16.80
2019-05-13T09:29:42.891Z,16.80
2019-05-13T09:32:12.400Z,16.90
2019-05-13T09:34:42.343Z,17.00
2019-05-13T09:37:12.244Z,17.10
2019-05-13T09:39:41.827Z,17.20
2019-05-13T09:42:12.726Z,17.30
2019-05-13T09:44:42.249Z,17.40
2019-05-13T09:47:12.534Z,17.50
2019-05-13T09:49:42.328Z,17.60
2019-05-13T09:52:12.484Z,17.70
2019-05-13T09:54:42.837Z,17.70
2019-05-13T09:57:12.650Z,17.80
2019-05-13T09:59:42.371Z,17.90
2019-05-13T10:02:12.569Z,17.90
2019-05-13T10:04:43.733Z,18.00
2019-05-13T10:07:13.398Z,18.10
2019-05-13T10:09:43.640Z,18.10
2019-05-13T10:12:14.408Z,18.20
2019-05-13T10:14:43.759Z,18.20
2019-05-13T10:17:13.389Z,18.30
2019-05-13T10:19:42.796Z,18.30
2019-05-13T10:22:12.239Z,18.40
2019-05-13T10:24:42.354Z,18.50
2019-05-13T10:27:12.616Z,18.60
2019-05-13T10:29:42.823Z,18.70
2019-05-13T10:32:12.355Z,18.70
2019-05-13T10:34:42.917Z,18.80
2019-05-13T10:37:12.627Z,18.80
2019-05-13T10:39:42.083Z,18.90
2019-05-13T10:42:12.229Z,18.90
2019-05-13T10:44:42.428Z,19.00
2019-05-13T10:47:12.298Z,19.10
2019-05-13T10:49:42.514Z,19.10
2019-05-13T10:52:12.432Z,19.10
2019-05-13T10:54:42.047Z,19.20
2019-05-13T10:57:13.618Z,19.30
2019-05-13T10:59:42.511Z,19.30
2019-05-13T11:02:13.412Z,19.40
2019-05-13T11:04:42.935Z,19.50
2019-05-13T11:07:13.558Z,19.50
2019-05-13T11:09:42.935Z,19.50
2019-05-13T11:12:12.729Z,19.60
2019-05-13T11:14:42.366Z,19.70
2019-05-13T11:17:12.985Z,19.70
2019-05-13T11:19:42.772Z,19.80
2019-05-13T11:22:12.462Z,19.80
2019-05-13T11:24:43.123Z,19.80
2019-05-13T11:27:13.152Z,19.80
2019-05-13T11:29:42.518Z,19.80
2019-05-13T11:32:13.304Z,19.90
2019-05-13T11:34:43.111Z,19.90
2019-05-13T11:37:12.605Z,19.90
2019-05-13T11:39:42.779Z,19.90
2019-05-13T11:42:13.571Z,20.00
2019-05-13T11:44:43.423Z,20.00
2019-05-13T11:47:12.966Z,20.10
2019-05-13T11:49:42.788Z,20.10
2019-05-13T11:52:12.291Z,20.10
2019-05-13T11:54:42.468Z,20.10
2019-05-13T11:57:12.698Z,20.20
2019-05-13T11:59:43.087Z,20.20
2019-05-13T12:02:13.855Z,20.30
2019-05-13T12:04:44.282Z,20.30
2019-05-13T12:07:13.843Z,20.40
2019-05-13T12:09:43.763Z,20.40
2019-05-13T12:12:13.910Z,20.40
2019-05-13T12:15:14.838Z,20.50
2019-05-13T12:17:14.685Z,20.50
2019-05-13T12:19:44.067Z,20.50
2019-05-13T12:22:13.595Z,20.60
2019-05-13T12:24:42.974Z,20.60
2019-05-13T12:27:12.451Z,20.60
2019-05-13T12:29:42.963Z,20.70
2019-05-13T12:32:13.823Z,20.70
2019-05-13T12:34:45.793Z,20.80
2019-05-13T12:37:14.396Z,20.80
2019-05-13T12:39:44.242Z,20.90
2019-05-13T12:42:13.677Z,21.00
2019-05-13T12:45:00.497Z,21.10
2019-05-13T12:47:14.141Z,21.10
2019-05-13T12:49:44.160Z,21.10
2019-05-13T12:52:13.709Z,21.10
2019-05-13T12:54:44.032Z,21.10
2019-05-13T12:57:16.238Z,21.20
2019-05-13T12:59:45.876Z,21.20
2019-05-13T13:02:15.234Z,21.30
2019-05-13T13:05:07.757Z,21.30
2019-05-13T13:07:15.721Z,21.40
2019-05-13T13:09:45.126Z,21.40
2019-05-13T13:12:14.853Z,21.40
2019-05-13T13:14:44.821Z,21.40
2019-05-13T13:17:14.292Z,21.40
2019-05-13T13:19:43.672Z,21.40
2019-05-13T13:22:13.707Z,21.40
2019-05-13T13:24:50.777Z,21.40
2019-05-13T13:27:21.045Z,21.50
2019-05-13T13:29:45.649Z,21.50
2019-05-13T13:32:14.992Z,21.50
2019-05-13T13:34:44.566Z,21.50
2019-05-13T13:37:13.941Z,21.50
2019-05-13T13:39:43.634Z,21.60
2019-05-13T13:42:13.317Z,21.60
2019-05-13T13:44:43.228Z,21.60
2019-05-13T13:47:14.838Z,21.60
2019-05-13T13:49:44.093Z,21.60
2019-05-13T13:52:15.942Z,21.60
2019-05-13T13:54:44.675Z,21.50
2019-05-13T13:57:14.144Z,21.50
2019-05-13T14:00:14.159Z,21.50
2019-05-13T14:02:14.585Z,21.50
2019-05-13T14:04:43.986Z,21.50
2019-05-13T14:07:27.843Z,21.60
2019-05-13T14:09:44.741Z,21.60
2019-05-13T14:12:14.188Z,21.60
2019-05-13T14:14:44.347Z,21.60
2019-05-13T14:17:13.718Z,21.60
2019-05-13T14:19:43.140Z,21.60
2019-05-13T14:22:12.806Z,21.60
2019-05-13T14:24:42.800Z,21.60
2019-05-13T14:27:12.398Z,21.60
2019-05-13T14:29:48.941Z,21.70
2019-05-13T14:32:13.346Z,21.70
2019-05-13T14:34:42.730Z,21.70
2019-05-13T14:37:12.114Z,21.80
2019-05-13T14:39:41.728Z,21.80
2019-05-13T14:42:11.900Z,21.70
2019-05-13T14:44:41.388Z,21.80
2019-05-13T14:47:12.472Z,21.70
2019-05-13T14:49:42.529Z,21.70
2019-05-13T14:52:12.167Z,21.70
2019-05-13T14:54:42.252Z,21.70
2019-05-13T14:57:14.889Z,21.70
2019-05-13T14:59:43.640Z,21.70
2019-05-13T15:02:13.036Z,21.60
2019-05-13T15:05:06.356Z,21.60
2019-05-13T15:07:13.502Z,21.60
2019-05-13T15:09:42.870Z,21.60
2019-05-13T15:12:12.268Z,21.60
2019-05-13T15:14:42.897Z,21.60
2019-05-13T15:17:12.981Z,21.60
2019-05-13T15:19:43.147Z,21.60
2019-05-13T15:22:15.746Z,21.50
2019-05-13T15:24:43.601Z,21.50
2019-05-13T15:27:12.981Z,21.50
2019-05-13T15:29:45.067Z,21.50
2019-05-13T15:32:14.422Z,21.40
2019-05-13T15:34:44.008Z,21.40
2019-05-13T15:37:13.401Z,21.40
2019-05-13T15:39:42.787Z,21.40
2019-05-13T15:42:12.191Z,21.40
2019-05-13T15:44:41.507Z,21.40
2019-05-13T15:47:22.749Z,21.40
2019-05-13T15:49:41.995Z,21.40
2019-05-13T15:52:11.948Z,21.40
2019-05-13T15:54:41.623Z,21.40
2019-05-13T15:57:12.063Z,21.40
2019-05-13T15:59:41.686Z,21.40
2019-05-13T16:02:11.876Z,21.40
2019-05-13T16:04:50.028Z,21.30
2019-05-13T16:07:12.543Z,21.30
2019-05-13T16:09:42.210Z,21.20
2019-05-13T16:12:12.289Z,21.20
2019-05-13T16:14:42.055Z,21.10
2019-05-13T16:17:12.329Z,21.10
2019-05-13T16:19:42.331Z,21.00
2019-05-13T16:22:12.067Z,21.00
2019-05-13T16:24:41.787Z,21.00
2019-05-13T16:27:11.961Z,21.00
2019-05-13T16:29:42.228Z,20.90
2019-05-13T16:32:12.182Z,20.90
2019-05-13T16:34:42.506Z,20.80
2019-05-13T16:37:11.933Z,20.80
2019-05-13T16:39:41.586Z,20.70
2019-05-13T16:42:11.883Z,20.70
2019-05-13T16:44:42.984Z,20.70
2019-05-13T16:47:12.573Z,20.70
2019-05-13T16:49:41.961Z,20.70
2019-05-13T16:52:11.853Z,20.60
2019-05-13T16:54:42.466Z,20.60
2019-05-13T16:57:12.519Z,20.60
2019-05-13T16:59:41.895Z,20.60
2019-05-13T17:02:12.566Z,20.50
2019-05-13T17:04:42.317Z,20.50
2019-05-13T17:07:11.689Z,20.50
2019-05-13T17:09:41.563Z,20.40
2019-05-13T17:12:12.874Z,20.40
2019-05-13T17:14:42.317Z,20.30
2019-05-13T17:17:12.026Z,20.30
2019-05-13T17:19:42.241Z,20.30
2019-05-13T17:22:13.112Z,20.20
2019-05-13T17:24:42.832Z,20.20
2019-05-13T17:27:12.330Z,20.10
2019-05-13T17:29:41.735Z,20.10
2019-05-13T17:32:11.587Z,20.10
2019-05-13T17:34:43.651Z,20.00
2019-05-13T17:37:12.396Z,20.00
2019-05-13T17:39:41.785Z,19.90
2019-05-13T17:42:12.260Z,19.90
2019-05-13T17:44:45.946Z,19.80
2019-05-13T17:47:13.538Z,19.80
2019-05-13T17:49:42.915Z,19.70
2019-05-13T17:52:12.289Z,19.70
2019-05-13T17:54:42.819Z,19.70
2019-05-13T17:57:12.543Z,19.60
2019-05-13T17:59:41.974Z,19.60
2019-05-13T18:02:11.989Z,19.50
2019-05-13T18:04:41.704Z,19.50
2019-05-13T18:07:12.214Z,19.40
2019-05-13T18:09:42.364Z,19.40
2019-05-13T18:12:11.944Z,19.30
2019-05-13T18:14:41.417Z,19.30
2019-05-13T18:17:12.511Z,19.30
2019-05-13T18:19:42.331Z,19.30
2019-05-13T18:22:11.696Z,19.30
2019-05-13T18:24:41.405Z,19.30
2019-05-13T18:27:12.291Z,19.30
2019-05-13T18:29:42.104Z,19.30
2019-05-13T18:32:12.309Z,19.20
2019-05-13T18:34:42.004Z,19.20
2019-05-13T18:37:11.995Z,19.20
2019-05-13T18:39:41.761Z,19.20
2019-05-13T18:42:11.739Z,19.10
2019-05-13T18:44:42.148Z,19.10
2019-05-13T18:47:12.185Z,19.00
2019-05-13T18:49:42.463Z,19.00
2019-05-13T18:52:12.068Z,18.90
2019-05-13T18:54:42.155Z,18.80
2019-05-13T18:57:12.209Z,18.70
2019-05-13T18:59:41.793Z,18.70
2019-05-13T19:02:12.201Z,18.50
2019-05-13T19:04:42.321Z,18.50
2019-05-13T19:07:11.760Z,18.30
2019-05-13T19:09:41.733Z,18.20
2019-05-13T19:12:11.747Z,18.10
2019-05-13T19:14:41.356Z,18.00
2019-05-13T19:17:12.406Z,17.80
2019-05-13T19:19:42.280Z,17.60
2019-05-13T19:22:12.277Z,17.50
2019-05-13T19:24:41.809Z,17.30
2019-05-13T19:27:12.720Z,17.20
2019-05-13T19:29:42.619Z,17.10
2019-05-13T19:32:12.521Z,16.90
2019-05-13T19:34:42.481Z,16.80
2019-05-13T19:37:12.115Z,16.70
2019-05-13T19:39:41.539Z,16.50
2019-05-13T19:42:11.598Z,16.40
2019-05-13T19:44:42.087Z,16.20
2019-05-13T19:47:12.380Z,16.10
2019-05-13T19:49:46.295Z,16.00
2019-05-13T19:52:13.243Z,15.90
2019-05-13T19:54:42.621Z,15.80
2019-05-13T19:57:12.168Z,15.60
2019-05-13T19:59:42.693Z,15.50
2019-05-13T20:02:12.494Z,15.40
2019-05-13T20:04:41.982Z,15.30
2019-05-13T20:07:11.925Z,15.20
2019-05-13T20:09:42.634Z,15.10
2019-05-13T20:12:15.356Z,15.00
2019-05-13T20:14:43.398Z,14.80
2019-05-13T20:17:12.767Z,14.70
2019-05-13T20:19:50.096Z,14.70
2019-05-13T20:22:13.285Z,14.50
2019-05-13T20:24:42.655Z,14.40
2019-05-13T20:27:12.125Z,14.30
2019-05-13T20:29:42.304Z,14.20
2019-05-13T20:32:11.818Z,14.10
2019-05-13T20:34:41.303Z,14.00
2019-05-13T20:37:12.387Z,13.90
2019-05-13T20:39:42.566Z,13.80
2019-05-13T20:42:12.432Z,13.70
2019-05-13T20:44:42.210Z,13.60
2019-05-13T20:47:11.593Z,13.50
2019-05-13T20:49:41.746Z,13.40
2019-05-13T20:52:15.051Z,13.30
2019-05-13T20:54:42.447Z,13.20
2019-05-13T20:57:11.884Z,13.10
2019-05-13T20:59:41.519Z,13.10
2019-05-13T21:02:12.378Z,13.00
2019-05-13T21:04:42.015Z,12.90
2019-05-13T21:07:11.391Z,12.80
2019-05-13T21:09:42.313Z,12.80
2019-05-13T21:12:12.176Z,12.70
2019-05-13T21:14:41.829Z,12.60
2019-05-13T21:17:12.265Z,12.50
2019-05-13T21:19:42.922Z,12.50
2019-05-13T21:22:12.533Z,12.40
2019-05-13T21:24:41.892Z,12.30
2019-05-13T21:27:11.839Z,12.30
2019-05-13T21:29:41.640Z,12.20
2019-05-13T21:32:11.924Z,12.10
2019-05-13T21:34:41.371Z,12.10
2019-05-13T21:37:11.532Z,12.00
2019-05-13T21:39:41.342Z,11.90
2019-05-13T21:42:11.566Z,11.80
2019-05-13T21:44:42.017Z,11.80
2019-05-13T21:47:11.560Z,11.70
2019-05-13T21:49:42.331Z,11.60
2019-05-13T21:52:11.862Z,11.60
2019-05-13T21:54:42.175Z,11.50
2019-05-13T21:57:11.690Z,11.40
2019-05-13T21:59:41.502Z,11.40
2019-05-13T22:02:11.242Z,11.30
2019-05-13T22:04:41.277Z,11.20
2019-05-13T22:07:12.178Z,11.20
2019-05-13T22:09:42.320Z,11.10
2019-05-13T22:12:11.915Z,11.00
2019-05-13T22:14:41.386Z,11.00
2019-05-13T22:17:12.361Z,10.90
2019-05-13T22:19:42.273Z,10.90
2019-05-13T22:22:11.765Z,10.90
2019-05-13T22:24:41.840Z,10.80
2019-05-13T22:27:13.251Z,10.70
2019-05-13T22:29:42.608Z,10.70
2019-05-13T22:32:11.974Z,10.60
2019-05-13T22:34:42.038Z,10.60
2019-05-13T22:37:11.837Z,10.50
2019-05-13T22:39:42.063Z,10.40
2019-05-13T22:42:12.575Z,10.40
2019-05-13T22:44:42.172Z,10.40
2019-05-13T22:47:13.430Z,10.30
2019-05-13T22:49:42.652Z,10.30
2019-05-13T22:52:12.025Z,10.20
2019-05-13T22:54:41.394Z,10.20
2019-05-13T22:57:11.983Z,10.10
2019-05-13T22:59:41.752Z,10.10
2019-05-13T23:02:11.072Z,10.00
2019-05-13T23:04:41.881Z,10.00
2019-05-13T23:07:11.756Z,10.00
2019-05-13T23:09:41.814Z,9.90
2019-05-13T23:12:12.298Z,9.90
2019-05-13T23:14:41.885Z,9.80
2019-05-13T23:17:12.452Z,9.80
2019-05-13T23:19:42.120Z,9.80
2019-05-13T23:22:12.102Z,9.70
2019-05-13T23:24:41.836Z,9.70
2019-05-13T23:27:11.353Z,9.70
2019-05-13T23:29:41.358Z,9.60
2019-05-13T23:32:11.979Z,9.60
2019-05-13T23:34:42.290Z,9.50
2019-05-13T23:37:12.370Z,9.50
2019-05-13T23:39:41.910Z,9.50
2019-05-13T23:42:12.352Z,9.40
2019-05-13T23:44:41.841Z,9.40
2019-05-13T23:47:11.661Z,9.30
2019-05-13T23:49:42.202Z,9.30
2019-05-13T23:52:11.982Z,9.20
2019-05-13T23:54:42.397Z,9.20
2019-05-13T23:57:12.567Z,9.20
2019-05-13T23:59:42.259Z,9.10
